createdAt,value
2023-05-15T00:01:39.185Z,12.40
2023-05-15T00:04:06.153Z,16.38
2023-05-15T00:06:33.026Z,15.75
2023-05-15T00:09:00.184Z,14.30
2023-05-15T00:11:27.973Z,15.85
2023-05-15T00:13:55.069Z,13.82
2023-05-15T00:16:21.937Z,15.30
2023-05-15T00:18:49.052Z,14.82
2023-05-15T00:21:15.807Z,14.68
2023-05-15T00:23:42.819Z,15.52
2023-05-15T00:26:09.598Z,14.97
2023-05-15T00:28:36.568Z,10.15
2023-05-15T00:31:03.472Z,14.70
2023-05-15T00:33:31.144Z,12.13
2023-05-15T00:35:57.859Z,13.68
2023-05-15T00:38:24.826Z,18.95
2023-05-15T00:40:52.437Z,16.48
2023-05-15T00:43:20.213Z,12.10
2023-05-15T00:45:48.243Z,14.00
2023-05-15T00:48:16.557Z,15.02
2023-05-15T00:50:44.428Z,12.98
2023-05-15T00:53:11.669Z,16.65
2023-05-15T00:55:40.510Z,15.57
2023-05-15T00:58:08.030Z,14.05
2023-05-15T01:00:35.327Z,13.48
2023-05-15T01:03:06.099Z,19.58
2023-05-15T01:05:33.627Z,19.27
2023-05-15T01:08:39.786Z,16.65
2023-05-15T01:11:08.916Z,20.55
2023-05-15T01:13:35.973Z,20.67
2023-05-15T01:16:02.900Z,19.65
2023-05-15T01:18:32.584Z,18.88
2023-05-15T01:21:10.672Z,15.07
2023-05-15T01:24:25.411Z,16.25
2023-05-15T01:27:20.371Z,14.32
2023-05-15T01:30:13.678Z,14.45
2023-05-15T01:32:51.137Z,15.85
2023-05-15T01:35:41.182Z,19.15
2023-05-15T01:38:25.032Z,16.48
2023-05-15T01:40:58.505Z,13.63
2023-05-15T01:43:28.924Z,10.40
2023-05-15T01:45:58.312Z,15.43
2023-05-15T01:48:28.398Z,16.58
2023-05-15T01:51:01.335Z,14.05
2023-05-15T01:53:32.011Z,14.68
2023-05-15T01:55:59.788Z,12.00
2023-05-15T01:58:28.139Z,13.20
2023-05-15T02:00:56.465Z,15.88
2023-05-15T02:03:24.635Z,14.27
2023-05-15T02:05:53.486Z,15.45
2023-05-15T02:08:21.679Z,14.18
2023-05-15T02:10:49.955Z,12.98
2023-05-15T02:13:20.249Z,19.63
2023-05-15T02:15:47.461Z,15.35
2023-05-15T02:18:14.260Z,14.93
2023-05-15T02:20:41.251Z,12.38
2023-05-15T02:23:07.925Z,12.80
2023-05-15T02:26:01.146Z,11.75
2023-05-15T02:28:37.113Z,13.25
2023-05-15T02:31:19.166Z,10.85
2023-05-15T02:33:50.647Z,13.07
2023-05-15T02:36:23.414Z,12.30
2023-05-15T02:38:53.692Z,13.32
2023-05-15T02:41:22.959Z,10.52
2023-05-15T02:43:51.667Z,12.90
2023-05-15T02:46:25.053Z,11.38
2023-05-15T02:48:54.115Z,10.75
2023-05-15T02:51:22.387Z,15.23
2023-05-15T02:53:49.138Z,17.63
2023-05-15T02:56:16.244Z,14.25
2023-05-15T02:58:43.241Z,15.05
2023-05-15T03:01:10.358Z,14.27
2023-05-15T03:03:37.139Z,14.02
2023-05-15T03:06:04.351Z,15.00
2023-05-15T03:08:31.166Z,16.67
2023-05-15T03:10:58.421Z,9.68
2023-05-15T03:13:25.268Z,15.77
2023-05-15T03:15:53.368Z,12.27
2023-05-15T03:18:20.459Z,17.17
2023-05-15T03:20:48.548Z,16.80
2023-05-15T03:23:15.402Z,16.02
2023-05-15T03:25:42.435Z,15.43
2023-05-15T03:28:09.205Z,20.80
2023-05-15T03:30:36.420Z,14.60
2023-05-15T03:33:06.486Z,14.30
2023-05-15T03:35:33.626Z,16.77
2023-05-15T03:38:00.494Z,15.38
2023-05-15T03:40:27.480Z,16.52
2023-05-15T03:42:54.317Z,12.52
2023-05-15T03:45:21.538Z,16.58
2023-05-15T03:47:48.927Z,13.02
2023-05-15T03:50:16.447Z,19.40
2023-05-15T03:52:43.348Z,14.02
2023-05-15T03:55:10.654Z,20.00
2023-05-15T03:57:37.492Z,13.90
2023-05-15T04:00:10.014Z,16.02
2023-05-15T04:02:41.050Z,29.17
2023-05-15T04:05:09.186Z,19.17
2023-05-15T04:07:37.286Z,14.30
2023-05-15T04:10:04.691Z,15.77
2023-05-15T04:12:34.005Z,14.27
2023-05-15T04:15:21.627Z,21.92
2023-05-15T04:17:52.888Z,13.25
2023-05-15T04:20:24.099Z,15.05
2023-05-15T04:22:51.777Z,28.08
2023-05-15T04:25:20.230Z,22.10
2023-05-15T04:27:47.430Z,18.50
2023-05-15T04:30:14.642Z,15.52
2023-05-15T04:32:42.361Z,13.07
2023-05-15T04:35:12.286Z,32.40
2023-05-15T04:37:40.690Z,33.08
2023-05-15T04:40:09.743Z,41.80
2023-05-15T04:42:39.240Z,24.55
2023-05-15T04:45:08.085Z,26.67
2023-05-15T04:47:35.558Z,21.38
2023-05-15T04:50:03.063Z,22.10
2023-05-15T04:52:30.144Z,29.10
2023-05-15T04:54:57.120Z,78.00
2023-05-15T04:57:24.020Z,26.52
2023-05-15T04:59:51.309Z,32.63
2023-05-15T05:02:24.574Z,22.60
2023-05-15T05:04:51.879Z,29.45
2023-05-15T05:07:18.789Z,41.35
2023-05-15T05:09:45.865Z,30.88
2023-05-15T05:12:12.872Z,26.45
2023-05-15T05:14:42.168Z,45.90
2023-05-15T05:17:09.885Z,30.00
2023-05-15T05:19:37.020Z,22.00
2023-05-15T05:22:05.460Z,25.77
2023-05-15T05:24:33.209Z,29.50
2023-05-15T05:27:00.325Z,18.35
2023-05-15T05:29:27.506Z,21.35
2023-05-15T05:31:54.567Z,21.13
2023-05-15T05:34:22.090Z,16.10
2023-05-15T05:36:49.230Z,19.75
2023-05-15T05:39:16.945Z,13.68
2023-05-15T05:41:44.424Z,20.23
2023-05-15T05:44:11.613Z,13.00
2023-05-15T05:46:38.522Z,17.88
2023-05-15T05:49:05.912Z,15.70
2023-05-15T05:51:32.724Z,10.50
2023-05-15T05:53:59.771Z,12.85
2023-05-15T05:56:26.693Z,13.63
2023-05-15T05:58:54.440Z,14.98
2023-05-15T06:01:21.210Z,15.45
2023-05-15T06:03:48.654Z,13.80
2023-05-15T06:06:15.486Z,12.98
2023-05-15T06:08:42.490Z,15.80
2023-05-15T06:11:09.199Z,11.57
2023-05-15T06:13:36.252Z,12.02
2023-05-15T06:16:03.114Z,12.52
2023-05-15T06:18:30.251Z,10.30
2023-05-15T06:21:00.211Z,12.45
2023-05-15T06:23:27.555Z,13.93
2023-05-15T06:25:54.376Z,15.70
2023-05-15T06:28:21.397Z,16.92
2023-05-15T06:30:48.395Z,14.77
2023-05-15T06:33:15.503Z,15.82
2023-05-15T06:35:42.722Z,17.58
2023-05-15T06:38:09.748Z,15.15
2023-05-15T06:40:36.582Z,14.35
2023-05-15T06:43:03.762Z,10.68
2023-05-15T06:45:30.768Z,11.95
2023-05-15T06:48:00.730Z,11.43
2023-05-15T07:02:48.666Z,11.65
2023-05-15T07:05:16.056Z,12.40
2023-05-15T07:07:42.988Z,12.57
2023-05-15T07:10:10.379Z,14.15
2023-05-15T07:12:37.204Z,15.80
2023-05-15T07:15:05.381Z,14.07
2023-05-15T07:17:33.661Z,15.07
2023-05-15T07:20:00.837Z,11.52
2023-05-15T07:22:29.146Z,16.90
2023-05-15T07:24:56.198Z,11.38
2023-05-15T07:27:22.999Z,15.00
2023-05-15T07:29:50.059Z,16.63
2023-05-15T07:32:16.878Z,16.15
2023-05-15T07:34:44.007Z,13.20
2023-05-15T07:37:10.764Z,16.35
2023-05-15T07:39:37.973Z,15.00
2023-05-15T07:42:04.936Z,16.35
2023-05-15T07:44:31.929Z,16.55
2023-05-15T07:46:58.850Z,12.50
2023-05-15T07:49:25.857Z,20.33
2023-05-15T07:51:52.595Z,11.38
2023-05-15T07:54:19.600Z,13.18
2023-05-15T07:56:46.443Z,16.02
2023-05-15T07:59:13.520Z,12.90
2023-05-15T08:01:40.293Z,12.35
2023-05-15T08:04:09.233Z,13.75
2023-05-15T08:06:39.881Z,8.40
2023-05-15T08:09:06.976Z,8.48
2023-05-15T08:11:33.925Z,13.20
2023-05-15T08:14:00.951Z,12.02
2023-05-15T08:16:27.916Z,14.30
2023-05-15T08:18:58.761Z,8.95
2023-05-15T08:21:25.536Z,10.50
2023-05-15T08:23:53.768Z,12.38
2023-05-15T08:26:21.112Z,10.43
2023-05-15T08:28:48.174Z,12.55
2023-05-15T08:31:14.896Z,16.80
2023-05-15T08:33:41.963Z,13.43
2023-05-15T08:36:09.020Z,17.55
2023-05-15T08:38:36.042Z,18.20
2023-05-15T08:41:10.923Z,10.75
2023-05-15T08:43:41.378Z,8.65
2023-05-15T08:46:08.757Z,9.90
2023-05-15T08:48:38.333Z,9.35
2023-05-15T08:51:09.453Z,9.90
2023-05-15T08:53:37.119Z,15.20
2023-05-15T08:56:04.764Z,10.73
2023-05-15T08:58:32.824Z,10.95
2023-05-15T09:01:00.095Z,9.93
2023-05-15T09:03:27.509Z,10.05
2023-05-15T09:05:55.174Z,9.93
2023-05-15T09:08:23.808Z,9.60
2023-05-15T09:10:52.854Z,10.98
2023-05-15T09:13:19.960Z,10.32
2023-05-15T09:15:47.967Z,10.50
2023-05-15T09:18:16.357Z,14.15
2023-05-15T09:20:43.084Z,13.18
2023-05-15T09:23:30.439Z,12.57
2023-05-15T09:25:57.899Z,23.05
2023-05-15T09:28:32.930Z,11.77
2023-05-15T09:31:04.950Z,10.80
2023-05-15T09:33:39.656Z,9.98
2023-05-15T09:36:08.332Z,11.45
2023-05-15T09:38:41.448Z,12.73
2023-05-15T09:41:09.133Z,11.75
2023-05-15T09:43:41.292Z,12.23
2023-05-15T09:46:08.722Z,13.18
2023-05-15T09:48:36.214Z,15.48
2023-05-15T09:51:05.805Z,11.88
2023-05-15T09:53:33.038Z,12.32
2023-05-15T09:55:59.822Z,10.60
2023-05-15T09:58:26.905Z,12.18
2023-05-15T10:00:53.690Z,14.15
2023-05-15T10:03:20.997Z,13.43
2023-05-15T10:05:48.111Z,12.52
2023-05-15T10:08:16.415Z,12.35
2023-05-15T10:10:43.844Z,15.05
2023-05-15T10:13:11.942Z,15.20
2023-05-15T10:15:40.006Z,17.95
2023-05-15T10:18:07.989Z,15.77
2023-05-15T10:20:38.230Z,16.15
2023-05-15T10:23:06.588Z,13.65
2023-05-15T10:25:41.244Z,16.38
2023-05-15T10:28:10.529Z,13.65
2023-05-15T10:30:38.098Z,15.93
2023-05-15T10:33:06.753Z,16.20
2023-05-15T10:35:39.875Z,15.65
2023-05-15T10:38:07.781Z,15.93
2023-05-15T10:40:37.931Z,13.93
2023-05-15T10:43:05.982Z,16.65
2023-05-15T10:45:35.088Z,14.10
2023-05-15T10:48:05.536Z,15.43
2023-05-15T10:50:32.591Z,15.70
2023-05-15T10:53:00.543Z,18.38
2023-05-15T10:55:27.276Z,16.30
2023-05-15T10:57:54.961Z,18.27
2023-05-15T11:00:31.205Z,14.82
2023-05-15T11:02:59.214Z,15.98
2023-05-15T11:05:26.859Z,15.23
2023-05-15T11:08:15.684Z,19.58
2023-05-15T11:10:42.834Z,18.25
2023-05-15T11:13:09.963Z,19.17
2023-05-15T11:15:44.760Z,18.67
2023-05-15T11:18:12.686Z,18.42
2023-05-15T11:20:41.905Z,17.35
2023-05-15T11:23:09.189Z,16.73
2023-05-15T11:25:37.059Z,21.67
2023-05-15T11:28:05.040Z,19.05
2023-05-15T11:30:39.799Z,20.15
2023-05-15T11:33:11.272Z,21.15
2023-05-15T11:35:49.224Z,22.08
2023-05-15T11:38:18.326Z,21.23
2023-05-15T11:40:49.182Z,17.23
2023-05-15T11:43:27.085Z,17.83
2023-05-15T11:45:58.645Z,16.70
2023-05-15T11:48:32.968Z,19.70
2023-05-15T11:51:03.023Z,16.98
2023-05-15T11:53:30.691Z,19.00
2023-05-15T11:55:57.429Z,17.48
2023-05-15T11:58:25.784Z,17.42
2023-05-15T12:00:53.778Z,17.13
2023-05-15T12:03:25.830Z,16.48
2023-05-15T12:05:59.623Z,16.77
2023-05-15T12:08:42.051Z,17.48
2023-05-15T12:11:08.927Z,13.65
2023-05-15T12:13:36.080Z,14.05
2023-05-15T12:16:04.372Z,16.65
2023-05-15T12:18:32.888Z,15.75
2023-05-15T12:21:00.411Z,12.88
2023-05-15T12:23:28.597Z,12.77
2023-05-15T12:26:00.339Z,15.32
2023-05-15T12:28:28.883Z,14.05
2023-05-15T12:30:55.989Z,12.65
2023-05-15T12:33:23.833Z,14.38
2023-05-15T12:35:55.268Z,12.73
2023-05-15T12:38:24.988Z,11.32
2023-05-15T12:40:56.940Z,11.60
2023-05-15T12:43:26.461Z,12.13
2023-05-15T12:45:54.827Z,10.15
2023-05-15T12:48:22.191Z,9.65
2023-05-15T12:50:50.087Z,11.25
2023-05-15T12:53:17.531Z,10.10
2023-05-15T12:55:46.842Z,9.68
2023-05-15T12:58:18.763Z,10.73
2023-05-15T13:00:50.204Z,8.68
2023-05-15T13:03:20.443Z,10.75
2023-05-15T13:05:47.443Z,9.60
2023-05-15T13:08:18.584Z,9.30
2023-05-15T13:10:46.575Z,10.35
2023-05-15T13:13:14.258Z,9.50
2023-05-15T13:15:45.510Z,9.77
2023-05-15T13:18:17.297Z,9.98
2023-05-15T13:20:45.212Z,9.70
2023-05-15T13:23:18.459Z,10.55
2023-05-15T13:25:45.575Z,10.55
2023-05-15T13:28:13.866Z,11.73
2023-05-15T13:30:42.126Z,9.63
2023-05-15T13:33:11.810Z,8.10
2023-05-15T13:35:39.803Z,8.73
2023-05-15T13:38:10.433Z,12.15
2023-05-15T13:40:39.076Z,9.65
2023-05-15T13:43:08.522Z,10.73
2023-05-15T13:45:36.435Z,10.68
2023-05-15T13:48:04.295Z,8.88
2023-05-15T13:50:31.596Z,9.48
2023-05-15T13:52:58.474Z,9.20
2023-05-15T13:55:26.162Z,8.70
2023-05-15T13:57:53.290Z,8.32
2023-05-15T14:00:20.949Z,9.10
2023-05-15T14:02:47.753Z,8.30
2023-05-15T14:05:15.479Z,8.68
2023-05-15T14:07:42.658Z,9.35
2023-05-15T14:10:10.664Z,9.93
2023-05-15T14:12:37.858Z,8.93
2023-05-15T14:15:05.894Z,9.10
2023-05-15T14:17:32.882Z,8.88
2023-05-15T14:19:59.999Z,8.15
2023-05-15T14:22:27.025Z,9.15
2023-05-15T14:24:54.061Z,7.80
2023-05-15T14:27:21.011Z,8.65
2023-05-15T14:29:49.165Z,11.07
2023-05-15T14:32:16.892Z,9.30
2023-05-15T14:34:44.644Z,11.98
2023-05-15T14:37:11.633Z,9.20
2023-05-15T14:39:38.697Z,9.25
2023-05-15T14:42:06.351Z,10.10
2023-05-15T14:44:34.762Z,8.50
2023-05-15T14:47:09.636Z,8.57
2023-05-15T14:49:37.769Z,9.25
2023-05-15T14:52:07.058Z,10.60
2023-05-15T14:54:35.671Z,11.93
2023-05-15T14:57:02.533Z,8.88
2023-05-15T14:59:29.683Z,11.48
2023-05-15T15:01:56.645Z,12.60
2023-05-15T15:04:23.960Z,9.93
2023-05-15T15:06:50.782Z,12.35
2023-05-15T15:09:21.230Z,8.82
2023-05-15T15:11:48.524Z,8.10
2023-05-15T15:14:15.651Z,10.10
2023-05-15T15:16:44.176Z,10.32
2023-05-15T15:19:11.513Z,12.50
2023-05-15T15:21:38.297Z,12.05
2023-05-15T15:24:05.745Z,9.20
2023-05-15T15:26:32.602Z,9.15
2023-05-15T15:29:01.014Z,9.85
2023-05-15T15:31:29.084Z,8.88
2023-05-15T15:33:57.355Z,10.00
2023-05-15T15:36:24.892Z,9.13
2023-05-15T15:38:52.260Z,9.13
2023-05-15T15:41:21.243Z,7.68
2023-05-15T15:43:48.342Z,8.50
2023-05-15T15:46:15.342Z,8.82
2023-05-15T15:48:42.398Z,9.52
2023-05-15T15:51:09.218Z,10.70
2023-05-15T15:53:36.213Z,13.52
2023-05-15T15:56:03.042Z,8.63
2023-05-15T15:58:30.423Z,8.57
2023-05-15T16:00:57.925Z,9.70
2023-05-15T16:03:25.131Z,9.02
2023-05-15T16:05:51.994Z,9.15
2023-05-15T16:08:19.262Z,11.18
2023-05-15T16:10:46.270Z,12.05
2023-05-15T16:13:13.447Z,9.13
2023-05-15T16:15:40.483Z,10.13
2023-05-15T16:18:07.742Z,20.65
2023-05-15T16:20:35.311Z,15.27
2023-05-15T16:23:02.531Z,15.77
2023-05-15T16:25:29.326Z,15.52
2023-05-15T16:27:56.388Z,11.25
2023-05-15T16:30:28.254Z,9.40
2023-05-15T16:33:01.624Z,12.77
2023-05-15T16:35:28.560Z,10.02
2023-05-15T16:37:55.621Z,14.70
2023-05-15T16:40:22.432Z,11.63
2023-05-15T16:42:49.389Z,15.10
2023-05-15T16:45:16.391Z,16.33
2023-05-15T16:47:43.451Z,22.88
2023-05-15T16:50:10.654Z,21.13
2023-05-15T16:52:39.588Z,24.05
2023-05-15T16:55:06.733Z,21.20
2023-05-15T16:57:33.791Z,9.40
2023-05-15T17:00:00.486Z,10.63
2023-05-15T17:02:27.666Z,13.88
2023-05-15T17:04:55.176Z,12.73
2023-05-15T17:07:22.147Z,13.68
2023-05-15T17:09:48.885Z,13.25
2023-05-15T17:12:15.994Z,25.83
2023-05-15T17:14:42.720Z,19.77
2023-05-15T17:17:09.660Z,14.35
2023-05-15T17:19:36.515Z,12.32
2023-05-15T17:22:03.713Z,12.85
2023-05-15T17:24:38.800Z,12.75
2023-05-15T17:27:09.619Z,11.82
2023-05-15T17:29:36.448Z,11.93
2023-05-15T17:32:04.350Z,11.57
2023-05-15T17:34:31.110Z,15.18
2023-05-15T17:36:58.136Z,11.43
2023-05-15T17:39:25.100Z,11.73
2023-05-15T17:41:52.208Z,11.75
2023-05-15T17:44:18.894Z,12.82
2023-05-15T17:46:45.923Z,11.82
2023-05-15T17:49:12.667Z,14.60
2023-05-15T17:51:39.649Z,13.60
2023-05-15T17:54:06.952Z,13.60
2023-05-15T17:56:34.078Z,13.65
2023-05-15T17:59:00.889Z,14.43
2023-05-15T18:01:28.259Z,16.15
2023-05-15T18:03:55.089Z,15.55
2023-05-15T18:06:22.361Z,15.50
2023-05-15T18:08:49.093Z,16.52
2023-05-15T18:11:22.413Z,16.15
2023-05-15T18:13:49.568Z,17.00
2023-05-15T18:16:17.910Z,19.63
2023-05-15T18:18:44.905Z,24.98
2023-05-15T18:21:11.909Z,22.25
2023-05-15T18:23:38.627Z,21.15
2023-05-15T18:26:05.948Z,23.83
2023-05-15T18:28:32.735Z,28.75
2023-05-15T18:30:59.753Z,26.00
2023-05-15T18:33:26.615Z,22.52
2023-05-15T18:35:54.104Z,27.83
2023-05-15T18:38:21.058Z,23.90
2023-05-15T18:40:48.592Z,26.13
2023-05-15T18:43:15.404Z,27.67
2023-05-15T18:45:42.585Z,24.00
2023-05-15T18:48:09.304Z,28.55
2023-05-15T18:50:36.415Z,30.52
2023-05-15T18:53:03.222Z,28.30
2023-05-15T18:55:30.269Z,29.08
2023-05-15T18:57:57.002Z,29.88
2023-05-15T19:00:36.974Z,29.95
2023-05-15T19:03:05.303Z,32.42
2023-05-15T19:05:34.149Z,31.80
2023-05-15T19:08:01.451Z,31.65
2023-05-15T19:10:29.641Z,33.55
2023-05-15T19:12:57.175Z,30.00
2023-05-15T19:15:25.128Z,34.95
2023-05-15T19:17:52.193Z,33.22
2023-05-15T19:20:19.883Z,29.20
2023-05-15T19:22:46.651Z,30.08
2023-05-15T19:25:13.797Z,29.85
2023-05-15T19:27:40.599Z,36.05
2023-05-15T19:30:09.407Z,31.92
2023-05-15T19:32:36.961Z,31.90
2023-05-15T19:35:04.676Z,33.35
2023-05-15T19:37:31.401Z,33.63
2023-05-15T19:39:58.360Z,34.80
2023-05-15T19:42:26.025Z,32.35
2023-05-15T19:44:53.085Z,38.08
2023-05-15T19:47:19.848Z,37.58
2023-05-15T19:49:46.915Z,41.33
2023-05-15T19:52:13.685Z,37.90
2023-05-15T19:54:40.710Z,43.17
2023-05-15T19:57:07.498Z,46.42
2023-05-15T19:59:34.628Z,46.53
2023-05-15T20:02:02.787Z,52.85
2023-05-15T20:04:30.275Z,45.17
2023-05-15T20:06:57.122Z,49.28
2023-05-15T20:09:24.134Z,47.10
2023-05-15T20:11:51.080Z,44.65
2023-05-15T20:14:18.173Z,47.35
2023-05-15T20:16:44.913Z,42.58
2023-05-15T20:19:12.647Z,38.08
2023-05-15T20:21:39.536Z,35.23
2023-05-15T20:24:06.989Z,32.05
2023-05-15T20:26:35.995Z,35.85
2023-05-15T20:29:03.573Z,33.13
2023-05-15T20:31:30.618Z,31.42
2023-05-15T20:33:57.716Z,33.60
2023-05-15T20:36:25.637Z,36.88
2023-05-15T20:38:53.029Z,30.42
2023-05-15T20:41:22.265Z,30.85
2023-05-15T20:43:50.095Z,31.90
2023-05-15T20:46:17.122Z,34.20
2023-05-15T20:48:44.391Z,30.85
2023-05-15T20:51:11.125Z,33.80
2023-05-15T20:53:38.270Z,31.15
2023-05-15T20:56:05.277Z,30.38
2023-05-15T20:58:33.261Z,23.08
2023-05-15T21:01:01.168Z,20.33
2023-05-15T21:03:28.912Z,19.60
2023-05-15T21:05:57.394Z,20.20
2023-05-15T21:08:24.820Z,20.70
2023-05-15T21:10:53.141Z,17.08
2023-05-15T21:13:20.329Z,18.65
2023-05-15T21:15:47.273Z,18.60
2023-05-15T21:18:14.366Z,20.40
2023-05-15T21:20:41.754Z,19.93
2023-05-15T21:23:08.904Z,22.67
2023-05-15T21:25:35.971Z,21.67
2023-05-15T21:28:04.171Z,20.97
2023-05-15T21:30:31.647Z,22.60
2023-05-15T21:32:59.144Z,24.70
2023-05-15T21:35:28.719Z,22.07
2023-05-15T21:37:55.950Z,22.70
2023-05-15T21:40:22.739Z,24.63
2023-05-15T21:42:49.880Z,24.67
2023-05-15T21:45:16.635Z,24.45
2023-05-15T21:47:43.679Z,26.80
2023-05-15T21:50:10.796Z,26.17
2023-05-15T21:52:38.092Z,24.53
2023-05-15T21:55:05.450Z,20.87
2023-05-15T21:57:32.407Z,21.03
2023-05-15T21:59:59.262Z,19.47
2023-05-15T22:02:26.276Z,23.43
2023-05-15T22:04:53.086Z,19.57
2023-05-15T22:07:20.658Z,20.33
2023-05-15T22:09:47.418Z,20.57
2023-05-15T22:12:14.424Z,19.80
2023-05-15T22:14:57.021Z,20.93
2023-05-15T22:17:27.164Z,22.73
2023-05-15T22:19:54.282Z,21.83
2023-05-15T22:22:21.455Z,22.57
2023-05-15T22:24:48.175Z,22.90
2023-05-15T22:27:16.685Z,26.43
2023-05-15T22:29:43.563Z,25.43
2023-05-15T22:32:10.655Z,24.93
2023-05-15T22:34:37.390Z,25.87
2023-05-15T22:37:04.614Z,24.87
2023-05-15T22:39:32.166Z,25.87
2023-05-15T22:41:59.192Z,26.13
2023-05-15T22:44:25.925Z,25.57
2023-05-15T22:46:53.104Z,27.60
2023-05-15T22:49:23.663Z,27.27
2023-05-15T22:51:54.625Z,29.47
2023-05-15T22:54:23.278Z,28.40
2023-05-15T22:56:52.063Z,26.30
2023-05-15T22:59:18.996Z,29.20
2023-05-15T23:01:46.468Z,25.97
2023-05-15T23:04:13.610Z,31.33
2023-05-15T23:06:41.105Z,27.07
2023-05-15T23:09:08.477Z,28.53
2023-05-15T23:11:36.015Z,25.53
2023-05-15T23:14:03.555Z,28.20
2023-05-15T23:16:30.889Z,27.63
2023-05-15T23:18:57.881Z,29.37
2023-05-15T23:21:25.296Z,26.93
2023-05-15T23:23:52.096Z,29.13
2023-05-15T23:26:19.114Z,25.70
2023-05-15T23:28:45.882Z,24.80
2023-05-15T23:31:13.885Z,24.57
2023-05-15T23:33:41.122Z,25.83
2023-05-15T23:36:08.761Z,24.77
2023-05-15T23:38:35.669Z,25.33
2023-05-15T23:41:02.826Z,21.97
2023-05-15T23:43:29.820Z,22.53
2023-05-15T23:45:56.975Z,21.73
2023-05-15T23:48:23.748Z,21.83
2023-05-15T23:50:52.284Z,23.35
2023-05-15T23:53:19.238Z,20.23
2023-05-15T23:55:46.304Z,22.92
2023-05-15T23:58:13.042Z,23.95
